Flight Track Log - Related Links

Times and Time Zones

All times are in EST time to prevent confusion due to time zone crossing. See the CCA4394 flight status page for this flight to view local times or setup timezone preferences in your user account.

Time Position Orientation Groundspeed Altitude Reporting Facility
EST Latitude Longitude Course Direction KTS MPH feet Rate Location/Type
Tue 10:08:00 PM 23.8898 112.8113 318° Northwest  Level Estimated
Tue 10:09:00 PM 23.9725 112.7297 318° Northwest  Level Estimated
Tue 10:10:00 PM 24.0552 112.6480 318° Northwest  Level Estimated
Tue 10:11:00 PM 24.1379 112.5662 318° Northwest  Level Estimated
Tue 10:12:00 PM 24.2205 112.4843 318° Northwest  Level Estimated
Tue 10:13:00 PM 24.3030 112.4023 318° Northwest  Level Estimated
Tue 10:14:00 PM 24.3856 112.3201 318° Northwest  Level Estimated
Tue 10:15:00 PM 24.4680 112.2379 318° Northwest  Level Estimated
Tue 10:16:00 PM 24.5505 112.1555 318° Northwest  Level Estimated
Tue 10:17:00 PM 24.6329 112.0731 318° Northwest  Level Estimated
Tue 10:18:00 PM 24.7152 111.9905 318° Northwest  Level Estimated
Tue 10:19:00 PM 24.7975 111.9078 318° Northwest  Level Estimated
Tue 10:20:00 PM 24.8797 111.8251 318° Northwest  Level Estimated
Tue 10:21:00 PM 24.9620 111.7422 318° Northwest  Level Estimated
Tue 10:22:00 PM 25.0441 111.6592 318° Northwest  Level Estimated
Tue 10:23:00 PM 25.1262 111.5760 318° Northwest  Level Estimated
Tue 10:24:00 PM 25.2083 111.4928 317° Northwest  Level Estimated
Tue 10:25:00 PM 25.2903 111.4095 317° Northwest  Level Estimated
Tue 10:26:00 PM 25.3723 111.3260 317° Northwest  Level Estimated
Tue 10:27:00 PM 25.4542 111.2424 317° Northwest  Level Estimated
Tue 10:28:00 PM 25.5361 111.1588 317° Northwest  Level Estimated
Tue 10:29:00 PM 25.6180 111.0750 317° Northwest  Level Estimated
Tue 10:30:00 PM 25.6997 110.9911 317° Northwest  Level Estimated
Tue 10:31:00 PM 25.7815 110.9070 317° Northwest  Level Estimated
Tue 10:32:00 PM 25.8632 110.8229 317° Northwest  Level Estimated
Tue 10:33:00 PM 25.9448 110.7386 317° Northwest  Level Estimated
Tue 10:34:00 PM 26.0264 110.6543 317° Northwest  Level Estimated
Tue 10:35:00 PM 26.1079 110.5698 317° Northwest  Level Estimated
Tue 10:36:00 PM 26.1894 110.4852 317° Northwest  Level Estimated
Tue 10:37:00 PM 26.2709 110.4004 317° Northwest  Level Estimated
Tue 10:38:00 PM 26.3523 110.3156 317° Northwest  Level Estimated
Tue 10:39:00 PM 26.4336 110.2306 317° Northwest  Level Estimated
Tue 10:40:00 PM 26.5149 110.1455 317° Northwest  Level Estimated
Tue 10:41:00 PM 26.5961 110.0603 317° Northwest  Level Estimated
Tue 10:42:00 PM 26.6773 109.9750 317° Northwest  Level Estimated
Tue 10:43:00 PM 26.7585 109.8895 317° Northwest  Level Estimated
Tue 10:44:00 PM 26.8396 109.8040 317° Northwest  Level Estimated
Tue 10:45:00 PM 26.9206 109.7183 317° Northwest  Level Estimated
Tue 10:46:00 PM 27.0016 109.6324 317° Northwest  Level Estimated
Tue 10:47:00 PM 27.0825 109.5465 317° Northwest  Level Estimated
Tue 10:48:00 PM 27.1634 109.4604 317° Northwest  Level Estimated
Tue 10:49:00 PM 27.2442 109.3743 317° Northwest  Level Estimated
Tue 10:50:00 PM 27.3250 109.2879 316° Northwest  Level Estimated
Tue 10:51:00 PM 27.4057 109.2015 316° Northwest  Level Estimated
Tue 10:52:00 PM 27.4864 109.1149 316° Northwest  Level Estimated
Tue 10:53:00 PM 27.5670 109.0282 316° Northwest  Level Estimated
Tue 10:54:00 PM 27.6476 108.9414 316° Northwest  Level Estimated
Tue 10:55:00 PM 27.7281 108.8545 316° Northwest  Level Estimated
Tue 10:56:00 PM 27.8085 108.7674 316° Northwest  Level Estimated
Tue 10:57:00 PM 27.8889 108.6802 316° Northwest  Level Estimated
Tue 10:58:00 PM 27.9693 108.5928 316° Northwest  Level Estimated
Tue 10:59:00 PM 28.0496 108.5054 316° Northwest  Level Estimated
Tue 11:00:00 PM 28.1298 108.4178 316° Northwest  Level Estimated
Tue 11:01:00 PM 28.2100 108.3300 316° Northwest  Level Estimated
Tue 11:02:00 PM 28.2901 108.2422 316° Northwest  Level Estimated
Tue 11:03:00 PM 28.3702 108.1542 316° Northwest  Level Estimated
Tue 11:04:00 PM 28.4502 108.0661 316° Northwest  Level Estimated
Tue 11:05:00 PM 28.5301 107.9778 316° Northwest  Level Estimated
Tue 11:06:00 PM 28.6100 107.8894 316° Northwest  Level Estimated
Tue 11:07:00 PM 28.6899 107.8009 316° Northwest  Level Estimated
Tue 11:08:00 PM 28.7696 107.7122 316° Northwest  Level Estimated
Tue 11:09:00 PM 28.8494 107.6234 316° Northwest  Level Estimated
Tue 11:10:00 PM 28.9290 107.5345 316° Northwest  Level Estimated
Tue 11:11:00 PM 29.0086 107.4454 316° Northwest  Level Estimated
Tue 11:12:00 PM 29.0882 107.3562 316° Northwest  Level Estimated
Tue 11:13:00 PM 29.1677 107.2669 316° Northwest  Level Estimated
Tue 11:14:00 PM 29.2471 107.1774 316° Northwest  Level Estimated
Tue 11:15:00 PM 29.3265 107.0878 315° West  Level Estimated
Tue 11:16:00 PM 29.4058 106.9980 315° West  Level Estimated
Tue 11:17:00 PM 29.4850 106.9081 315° West  Level Estimated
Tue 11:18:00 PM 29.5642 106.8181 315° West  Level Estimated
Tue 11:19:00 PM 29.6433 106.7279 315° West  Level Estimated
Tue 11:20:00 PM 29.7194 106.6410 315° West  Level Estimated
Tue 11:21:00 PM 29.7194 106.6410 60° Northeast  Level Estimated
Tue 11:22:00 PM 29.7194 106.6410 60° Northeast  Level Estimated
Tue 11:23:00 PM 29.7194 106.6410 60° Northeast  Level Estimated
Tue 11:24:00 PM 29.7194 106.6410 60° Northeast  Level Estimated
Tue 11:25:00 PM 29.7194 106.6410 60° Northeast  Level Estimated
Tue 11:26:00 PM 29.7194 106.6410 60° Northeast  Level Estimated
Tue 11:27:00 PM 29.7194 106.6410 60° Northeast  Level Estimated
Tue 11:28:00 PM 29.7194 106.6410 60° Northeast  Level Estimated
Tue 11:29:00 PM 29.7194 106.6410 60° Northeast  Level Estimated
Tue 11:30:00 PM 29.7194 106.6410 60° Northeast  Level Estimated
Tue 11:31:00 PM 29.7194 106.6410 60° Northeast  Level Estimated
Tue 11:32:00 PM 29.7194 106.6410 60° Northeast  Level Estimated
Tue 11:33:00 PM 29.7194 106.6410 60° Northeast  Level Estimated
Tue 11:34:00 PM 29.7194 106.6410 60° Northeast  Level Estimated
Tue 11:35:00 PM 29.7194 106.6410 60° Northeast  Level Estimated
Tue 11:36:00 PM 29.7194 106.6410 60° Northeast  Level Estimated

Login

Don't have an account? Register now (free) for customized features, flight alerts, and more!